| time (UTC) | temp F | wind direction | speed MPH | gust MPH | rain 1hr in | rain 24hr in | rain mn in | humidity % | barometer mb |
| 20260507180805 | 58 | 211 | 3.0 | 6.0 | 0.00 | 0.46 | 0.00 | 26 | 1003.1 |
| 20260507180305 | 57 | 108 | 4.0 | 13.0 | 0.00 | 0.46 | 0.00 | 26 | 1003.1 |
| 20260507175307 | 57 | 160 | 2.0 | 7.0 | 0.00 | 0.47 | 0.00 | 26 | 1003.4 |
| 20260507174304 | 57 | 130 | 0.0 | 7.0 | 0.00 | 0.48 | 0.00 | 28 | 1003.4 |
| 20260507173304 | 57 | 202 | 3.0 | 12.0 | 0.00 | 0.50 | 0.00 | 28 | 1003.4 |
| 20260507172804 | 56 | 121 | 2.0 | 10.0 | 0.00 | 0.51 | 0.00 | 28 | 1003.4 |
| 20260507170804 | 57 | 15 | 1.0 | 5.0 | 0.00 | 0.53 | 0.00 | 28 | 1004.2 |
| 20260507165805 | 56 | 64 | 1.0 | 8.0 | 0.00 | 0.54 | 0.00 | 30 | 1004.2 |
| 20260507165306 | 56 | 154 | 1.0 | 5.0 | 0.00 | 0.55 | 0.00 | 30 | 1004.2 |
| 20260507164804 | 57 | 122 | 1.0 | 3.0 | 0.00 | 0.55 | 0.00 | 31 | 1004.2 |
| 20260507164304 | 56 | 95 | 2.0 | 10.0 | 0.00 | 0.56 | 0.00 | 29 | 1004.2 |
| 20260507162307 | 56 | 166 | 3.0 | 7.0 | 0.00 | 0.58 | 0.00 | 29 | 1004.2 |
| 20260507161804 | 55 | 201 | 6.0 | 17.0 | 0.00 | 0.58 | 0.00 | 28 | 1004.2 |
| 20260507160804 | 55 | 110 | 2.0 | 7.0 | 0.00 | 0.59 | 0.00 | 32 | 1004.6 |
| 20260507160304 | 54 | 32 | 0.0 | 2.0 | 0.00 | 0.59 | 0.00 | 30 | 1004.6 |
| 20260507154304 | 55 | 241 | 3.0 | 16.0 | 0.00 | 0.59 | 0.00 | 29 | 1004.8 |
| 20260507153804 | 56 | 135 | 1.0 | 3.0 | 0.00 | 0.59 | 0.00 | 34 | 1004.8 |
| 20260507151805 | 54 | 351 | 2.0 | 9.0 | 0.00 | 0.60 | 0.00 | 35 | 1004.7 |
| 20260507151305 | 54 | 137 | 1.0 | 6.0 | 0.00 | 0.60 | 0.00 | 35 | 1004.7 |
| 20260507150804 | 54 | 258 | 3.0 | 12.0 | 0.00 | 0.60 | 0.00 | 34 | 1004.7 |
| 20260507145805 | 54 | 127 | 1.0 | 7.0 | 0.00 | 0.60 | 0.00 | 35 | 1004.7 |
| 20260507144804 | 55 | 197 | 1.0 | 6.0 | 0.00 | 0.60 | 0.00 | 39 | 1004.7 |
| 20260507142306 | 53 | 115 | 2.0 | 7.0 | 0.00 | 0.60 | 0.00 | 43 | 1004.7 |
| 20260507134804 | 51 | 48 | 0.0 | 3.0 | 0.00 | 0.60 | 0.00 | 53 | 1004.8 |
| 20260507133804 | 51 | 161 | 1.0 | 6.0 | 0.00 | 0.60 | 0.00 | 53 | 1004.8 |
| 20260507132804 | 51 | 76 | 1.0 | 3.0 | 0.00 | 0.60 | 0.00 | 53 | 1004.8 |
| 20260507131305 | 49 | 28 | 1.0 | 3.0 | 0.00 | 0.60 | 0.00 | 65 | 1004.8 |
| 20260507130804 | 48 | 84 | 1.0 | 5.0 | 0.00 | 0.60 | 0.00 | 68 | 1004.8 |
| 20260507130304 | 47 | 186 | 1.0 | 5.0 | 0.00 | 0.60 | 0.00 | 74 | 1004.8 |
| 20260507124804 | 46 | 347 | 0.0 | 0.0 | 0.00 | 0.60 | 0.00 | 82 | 1004.2 |
| 20260507124304 | 46 | 347 | 0.0 | 0.0 | 0.00 | 0.60 | 0.00 | 82 | 1004.2 |
| 20260507123804 | 46 | 347 | 0.0 | 0.0 | 0.00 | 0.60 | 0.00 | 82 | 1004.2 |
| 20260507123304 | 46 | 347 | 0.0 | 0.0 | 0.00 | 0.60 | 0.00 | 82 | 1004.2 |
| 20260507122307 | 46 | 348 | 0.0 | 0.0 | 0.00 | 0.60 | 0.00 | 82 | 1004.2 |
| 20260507121804 | 47 | 355 | 0.0 | 0.0 | 0.00 | 0.60 | 0.00 | 84 | 1004.2 |
| 20260507121305 | 47 | 32 | 0.0 | 0.0 | 0.00 | 0.60 | 0.00 | 85 | 1004.2 |
| 20260507120804 | 47 | 32 | 0.0 | 0.0 | 0.00 | 0.60 | 0.00 | 88 | 1004.2 |
| 20260507115307 | 46 | 297 | 0.0 | 3.0 | 0.00 | 0.60 | 0.00 | 89 | 1004.2 |
| 20260507111305 | 44 | 267 | 0.0 | 0.0 | 0.00 | 0.60 | 0.00 | 88 | 1004.2 |
| 20260507110304 | 43 | 267 | 0.0 | 0.0 | 0.00 | 0.60 | 0.00 | 89 | 1004.2 |
| 20260507105804 | 43 | 267 | 0.0 | 0.0 | 0.00 | 0.60 | 0.00 | 89 | 1004.2 |
| 20260507104804 | 43 | 267 | 0.0 | 0.0 | 0.00 | 0.60 | 0.00 | 88 | 1004.2 |
| 20260507103804 | 43 | 267 | 0.0 | 0.0 | 0.00 | 0.60 | 0.00 | 88 | 1004.1 |
| 20260507102307 | 42 | 267 | 0.0 | 0.0 | 0.00 | 0.60 | 0.00 | 88 | 1004.1 |
| 20260507100805 | 41 | 267 | 0.0 | 0.0 | 0.00 | 0.60 | 0.00 | 87 | 1004.1 |
| 20260507100304 | 41 | 267 | 0.0 | 0.0 | 0.00 | 0.60 | 0.00 | 87 | 1004.1 |
| 20260507095804 | 41 | 267 | 0.0 | 0.0 | 0.00 | 0.60 | 0.00 | 87 | 1004.1 |
| 20260507094804 | 42 | 267 | 0.0 | 0.0 | 0.00 | 0.60 | 0.00 | 87 | 1004.2 |
| 20260507094304 | 42 | 267 | 0.0 | 0.0 | 0.00 | 0.60 | 0.00 | 87 | 1004.2 |
| 20260507093804 | 42 | 267 | 0.0 | 2.0 | 0.00 | 0.60 | 0.00 | 87 | 1004.2 |
| 20260507092307 | 41 | 268 | 0.0 | 0.0 | 0.00 | 0.60 | 0.00 | 87 | 1004.2 |
| 20260507091805 | 41 | 268 | 0.0 | 0.0 | 0.00 | 0.60 | 0.00 | 87 | 1004.2 |
| 20260507091304 | 42 | 268 | 0.0 | 0.0 | 0.00 | 0.60 | 0.00 | 87 | 1004.2 |
| 20260507090304 | 42 | 268 | 0.0 | 0.0 | 0.00 | 0.60 | 0.00 | 87 | 1004.2 |
| 20260507084305 | 42 | 268 | 0.0 | 0.0 | 0.00 | 0.60 | 0.00 | 87 | 1004.2 |
| 20260507082804 | 43 | 268 | 0.0 | 0.0 | 0.00 | 0.60 | 0.00 | 87 | 1004.2 |
| 20260507081805 | 43 | 268 | 0.0 | 0.0 | 0.00 | 0.60 | 0.00 | 87 | 1004.2 |
| 20260507081304 | 43 | 268 | 0.0 | 0.0 | 0.00 | 0.60 | 0.00 | 87 | 1004.2 |
| 20260507080304 | 43 | 268 | 0.0 | 0.0 | 0.00 | 0.60 | 0.00 | 87 | 1004.2 |
| 20260507072306 | 43 | 268 | 0.0 | 0.0 | 0.00 | 0.60 | 0.00 | 86 | 1003.8 |
| 20260507071805 | 43 | 268 | 0.0 | 0.0 | 0.00 | 0.60 | 0.00 | 86 | 1003.8 |
| 20260507071304 | 43 | 268 | 0.0 | 0.0 | 0.00 | 0.60 | 0.00 | 86 | 1003.9 |
| 20260507070804 | 44 | 268 | 0.0 | 0.0 | 0.00 | 0.60 | 0.00 | 86 | 1004.4 |
| 20260507065804 | 44 | 268 | 0.0 | 0.0 | 0.00 | 0.60 | 0.00 | 87 | 1004.4 |
| 20260507064804 | 44 | 268 | 0.0 | 0.0 | 0.00 | 0.60 | 0.00 | 86 | 1004.4 |
| 20260507062306 | 44 | 268 | 0.0 | 0.0 | 0.00 | 0.60 | 0.00 | 86 | 1004.4 |
| 20260507061805 | 44 | 268 | 0.0 | 0.0 | 0.00 | 0.60 | 0.00 | 86 | 1004.4 |
| 20260507055805 | 44 | 268 | 0.0 | 0.0 | 0.00 | 0.60 | 0.00 | 86 | 1004.4 |
| 20260507054805 | 45 | 268 | 0.0 | 0.0 | 0.00 | 0.60 | 0.00 | 86 | 1004.4 |
| 20260507053805 | 45 | 268 | 0.0 | 0.0 | 0.00 | 0.60 | 0.00 | 86 | 1004.4 |
| 20260507053305 | 45 | 268 | 0.0 | 0.0 | 0.00 | 0.60 | 0.00 | 86 | 1003.9 |
| 20260507052306 | 45 | 268 | 0.0 | 0.0 | 0.00 | 0.60 | 0.00 | 86 | 1003.9 |
| 20260507051805 | 45 | 268 | 0.0 | 0.0 | 0.00 | 0.60 | 0.00 | 86 | 1003.9 |
| 20260507051304 | 45 | 268 | 0.0 | 0.0 | 0.00 | 0.60 | 0.00 | 86 | 1003.9 |
| 20260507050804 | 45 | 268 | 0.0 | 0.0 | 0.00 | 0.60 | 0.00 | 86 | 1003.9 |
| 20260507050304 | 45 | 268 | 0.0 | 0.0 | 0.00 | 0.60 | 0.00 | 86 | 1003.9 |
| 20260507045805 | 45 | 268 | 0.0 | 0.0 | 0.00 | 0.60 | 0.00 | 86 | 1003.9 |
| 20260507045306 | 46 | 268 | 0.0 | 0.0 | 0.00 | 0.60 | 0.00 | 86 | 1003.9 |
| 20260507043804 | 46 | 268 | 0.0 | 0.0 | 0.00 | 0.60 | 0.00 | 86 | 1003.9 |
| 20260507042804 | 47 | 268 | 0.0 | 0.0 | 0.00 | 0.60 | 0.00 | 86 | 1003.9 |
| 20260507042307 | 47 | 268 | 0.0 | 0.0 | 0.00 | 0.60 | 0.00 | 86 | 1003.9 |
| 20260507041805 | 47 | 268 | 0.0 | 0.0 | 0.00 | 0.60 | 0.00 | 86 | 1003.9 |
| 20260507040820 | 47 | 268 | 0.0 | 0.0 | 0.00 | 0.60 | 0.00 | 86 | 1003.9 |
| 20260507040304 | 47 | 268 | 0.0 | 0.0 | 0.00 | 0.60 | 0.00 | 86 | 1003.9 |
| 20260507035306 | 47 | 268 | 0.0 | 0.0 | 0.01 | 0.60 | 0.60 | 86 | 1003.9 |
| 20260507034305 | 47 | 268 | 0.0 | 0.0 | 0.01 | 0.60 | 0.60 | 86 | 1003.7 |
| 20260507032805 | 47 | 268 | 0.0 | 0.0 | 0.02 | 0.60 | 0.60 | 86 | 1004.2 |
| 20260507025306 | 47 | 268 | 0.0 | 0.0 | 0.03 | 0.59 | 0.59 | 85 | 1004.3 |
| 20260507024805 | 47 | 268 | 0.0 | 0.0 | 0.03 | 0.59 | 0.59 | 85 | 1004.3 |
| 20260507023805 | 47 | 268 | 0.0 | 0.0 | 0.04 | 0.59 | 0.59 | 85 | 1004.3 |
| 20260507021804 | 48 | 268 | 0.0 | 1.0 | 0.03 | 0.58 | 0.58 | 85 | 1004.2 |
| 20260507020804 | 48 | 268 | 0.0 | 0.0 | 0.03 | 0.57 | 0.57 | 85 | 1004.2 |
| 20260507020304 | 48 | 268 | 0.0 | 0.0 | 0.02 | 0.56 | 0.56 | 85 | 1004.2 |
| 20260507015805 | 48 | 268 | 0.0 | 0.0 | 0.02 | 0.56 | 0.56 | 85 | 1004.2 |
| 20260507015306 | 48 | 268 | 0.0 | 0.0 | 0.02 | 0.56 | 0.56 | 84 | 1004.2 |
| 20260507014805 | 48 | 268 | 0.0 | 0.0 | 0.03 | 0.56 | 0.56 | 84 | 1004.2 |
| 20260507014304 | 48 | 268 | 0.0 | 1.0 | 0.02 | 0.55 | 0.55 | 84 | 1003.6 |
| 20260507012306 | 49 | 295 | 0.0 | 6.0 | 0.03 | 0.55 | 0.55 | 84 | 1003.6 |
| 20260507011804 | 49 | 47 | 0.0 | 1.0 | 0.03 | 0.55 | 0.55 | 85 | 1003.6 |
| 20260507010804 | 49 | 49 | 0.0 | 1.0 | 0.02 | 0.54 | 0.54 | 85 | 1002.5 |
| 20260507010304 | 50 | 49 | 0.0 | 0.0 | 0.02 | 0.54 | 0.54 | 85 | 1002.5 |
| 20260507005804 | 50 | 48 | 0.0 | 1.0 | 0.02 | 0.54 | 0.54 | 84 | 1002.5 |
| 20260507004805 | 51 | 71 | 0.0 | 0.0 | 0.01 | 0.53 | 0.53 | 85 | 1002.5 |
| 20260507003304 | 51 | 61 | 0.0 | 1.0 | 0.01 | 0.53 | 0.53 | 84 | 1002.5 |
| 20260507002306 | 51 | 38 | 0.0 | 3.0 | 0.01 | 0.52 | 0.52 | 84 | 1002.5 |
| 20260507001804 | 52 | 13 | 0.0 | 7.0 | 0.01 | 0.52 | 0.52 | 85 | 1002.3 |
| 20260507001305 | 52 | 108 | 1.0 | 3.0 | 0.01 | 0.52 | 0.52 | 85 | 1000.6 |
| 20260507000306 | 52 | 255 | 1.0 | 5.0 | 0.01 | 0.52 | 0.52 | 85 | 1000.6 |
| 20260506235804 | 53 | 27 | 0.0 | 0.0 | 0.01 | 0.52 | 0.52 | 85 | 1000.6 |
| 20260506235306 | 53 | 27 | 0.0 | 5.0 | 0.02 | 0.52 | 0.52 | 85 | 1000.6 |
| 20260506234804 | 53 | 41 | 0.0 | 0.0 | 0.03 | 0.52 | 0.52 | 85 | 1000.6 |
| 20260506234305 | 53 | 41 | 0.0 | 0.0 | 0.03 | 0.52 | 0.52 | 85 | 1000.6 |
| 20260506233805 | 54 | 77 | 1.0 | 3.0 | 0.03 | 0.52 | 0.52 | 85 | 1000.6 |
| 20260506231804 | 56 | 35 | 0.0 | 3.0 | 0.02 | 0.51 | 0.51 | 85 | 1000.6 |
| 20260506230805 | 57 | 113 | 0.0 | 3.0 | 0.02 | 0.51 | 0.51 | 85 | 1000.6 |
| 20260506230304 | 58 | 190 | 0.0 | 0.0 | 0.02 | 0.51 | 0.51 | 85 | 1000.6 |
| 20260506225804 | 58 | 190 | 1.0 | 6.0 | 0.02 | 0.51 | 0.51 | 85 | 1000.1 |
| 20260506225305 | 59 | 236 | 0.0 | 1.0 | 0.01 | 0.50 | 0.50 | 87 | 1000.1 |
| 20260506224304 | 59 | 242 | 0.0 | 0.0 | 0.02 | 0.49 | 0.49 | 86 | 1000.1 |
| 20260506223304 | 59 | 245 | 0.0 | 0.0 | 0.07 | 0.49 | 0.49 | 86 | 1000.1 |
| 20260506221804 | 59 | 217 | 0.0 | 2.0 | 0.07 | 0.49 | 0.49 | 86 | 1000.0 |
| 20260506220804 | 59 | 150 | 0.0 | 0.0 | 0.08 | 0.49 | 0.49 | 86 | 1000.0 |
| 20260506220305 | 59 | 150 | 0.0 | 0.0 | 0.08 | 0.49 | 0.49 | 86 | 1000.0 |
| 20260506215306 | 59 | 131 | 0.0 | 2.0 | 0.08 | 0.49 | 0.49 | 86 | 1000.0 |
| 20260506214304 | 60 | 275 | 1.0 | 5.0 | 0.06 | 0.47 | 0.47 | 85 | 1000.0 |
| 20260506212804 | 60 | 230 | 1.0 | 3.0 | 0.01 | 0.43 | 0.42 | 86 | 1000.0 |
| 20260506210305 | 60 | 194 | 0.0 | 3.0 | 0.03 | 0.45 | 0.41 | 87 | 1000.0 |
| 20260506205805 | 60 | 194 | 1.0 | 3.0 | 0.04 | 0.47 | 0.41 | 87 | 1000.0 |
| 20260506205306 | 60 | 201 | 0.0 | 2.0 | 0.05 | 0.47 | 0.41 | 87 | 1000.0 |
| 20260506204804 | 60 | 207 | 0.0 | 0.0 | 0.06 | 0.47 | 0.41 | 87 | 1000.0 |
| 20260506204305 | 60 | 191 | 0.0 | 3.0 | 0.07 | 0.47 | 0.41 | 87 | 1000.0 |
| 20260506203805 | 60 | 191 | 0.0 | 0.0 | 0.09 | 0.47 | 0.41 | 87 | 1000.0 |
| 20260506203305 | 60 | 191 | 0.0 | 0.0 | 0.10 | 0.47 | 0.41 | 87 | 1000.5 |
| 20260506201804 | 60 | 246 | 0.0 | 0.0 | 0.17 | 0.46 | 0.40 | 87 | 1000.5 |
| 20260506201304 | 60 | 246 | 0.0 | 0.0 | 0.17 | 0.45 | 0.39 | 87 | 1000.5 |
| 20260506194804 | 60 | 315 | 0.0 | 0.0 | 0.15 | 0.41 | 0.35 | 86 | 1000.5 |
| 20260506194304 | 60 | 315 | 0.0 | 0.0 | 0.15 | 0.40 | 0.34 | 85 | 1001.1 |
| 20260506193805 | 60 | 319 | 0.0 | 0.0 | 0.14 | 0.38 | 0.32 | 85 | 1001.1 |
| 20260506193304 | 60 | 306 | 0.0 | 0.0 | 0.13 | 0.37 | 0.31 | 85 | 1001.1 |
| 20260506192306 | 60 | 239 | 0.0 | 2.0 | 0.10 | 0.32 | 0.26 | 85 | 1001.1 |
| 20260506190805 | 61 | 238 | 0.0 | 0.0 | 0.07 | 0.27 | 0.21 | 85 | 1001.1 |
| 20260506190306 | 60 | 238 | 0.0 | 0.0 | 0.07 | 0.27 | 0.21 | 85 | 1001.1 |
| 20260506185306 | 60 | 171 | 0.0 | 0.0 | 0.07 | 0.26 | 0.20 | 85 | 1001.1 |
| 20260506183304 | 60 | 171 | 0.0 | 0.0 | 0.08 | 0.24 | 0.18 | 84 | 1001.1 |
| 20260506182306 | 60 | 171 | 0.0 | 2.0 | 0.07 | 0.22 | 0.16 | 84 | 1002.0 |
| 20260506181805 | 60 | 171 | 0.0 | 2.0 | 0.07 | 0.21 | 0.15 | 84 | 1002.0 |